LZB8793 LBSF-LTBS
Flight info
| Callsign | LZB8793 |
|---|---|
| Flight time | 1h 6m |
| Altitude | 37000 |
| Route | OMENO Y505 NIKTI UN127 LMO UN128 RIKSO UN127 IMR UT489 SONUP |
| Aircraft | A320/M-SDE3FGHIRWY/LB1 |
Departure
| Time | 2026-04-27 15:15 |
|---|---|
| Airport | Sofia Airport (LBSF) |
Arrival
| Time | 2026-04-27 16:21 |
|---|---|
| Airport | Dalaman International Airport (LTBS) |
| Time | Latitude | Longitude | Altitude | Speed | Heading |
|---|---|---|---|---|---|
| 2026-04-27 14:47 | 42.69109 | 23.41279 | 1744 ft | 0 kts | 72° |
| 2026-04-27 15:07 | 42.69103 | 23.41252 | 1750 ft | 4 kts | 67° |
| 2026-04-27 15:07 | 42.69090 | 23.41221 | 1741 ft | 4 kts | 40° |
| 2026-04-27 15:08 | 42.69073 | 23.41212 | 1748 ft | 1 kts | 342° |
| 2026-04-27 15:09 | 42.69074 | 23.41211 | 1747 ft | 3 kts | 342° |
| 2026-04-27 15:10 | 42.69138 | 23.41182 | 1744 ft | 12 kts | 341° |
| 2026-04-27 15:10 | 42.69224 | 23.41148 | 1741 ft | 14 kts | 354° |
| 2026-04-27 15:10 | 42.69324 | 23.41175 | 1750 ft | 16 kts | 12° |
| 2026-04-27 15:10 | 42.69434 | 23.41207 | 1750 ft | 16 kts | 9° |
| 2026-04-27 15:11 | 42.69497 | 23.41104 | 1747 ft | 17 kts | 275° |
| 2026-04-27 15:11 | 42.69507 | 23.40936 | 1749 ft | 19 kts | 274° |
| 2026-04-27 15:11 | 42.69517 | 23.40755 | 1749 ft | 20 kts | 275° |
| 2026-04-27 15:11 | 42.69529 | 23.40560 | 1749 ft | 21 kts | 274° |
| 2026-04-27 15:12 | 42.69541 | 23.40351 | 1748 ft | 23 kts | 275° |
| 2026-04-27 15:12 | 42.69555 | 23.40133 | 1748 ft | 21 kts | 275° |
| 2026-04-27 15:12 | 42.69567 | 23.39928 | 1744 ft | 21 kts | 274° |
| 2026-04-27 15:12 | 42.69577 | 23.39761 | 1748 ft | 15 kts | 275° |
| 2026-04-27 15:13 | 42.69587 | 23.39628 | 1748 ft | 13 kts | 286° |
| 2026-04-27 15:13 | 42.69662 | 23.39592 | 1744 ft | 13 kts | 5° |
| 2026-04-27 15:13 | 42.69750 | 23.39604 | 1748 ft | 13 kts | 9° |
| 2026-04-27 15:13 | 42.69773 | 23.39642 | 1748 ft | 0 kts | 94° |
| 2026-04-27 15:14 | 42.69773 | 23.39644 | 1747 ft | 0 kts | 94° |
| 2026-04-27 15:14 | 42.69772 | 23.39657 | 1745 ft | 8 kts | 94° |
| 2026-04-27 15:14 | 42.69751 | 23.40008 | 1750 ft | 73 kts | 94° |
| 2026-04-27 15:15 | 42.69692 | 23.40994 | 1745 ft | 133 kts | 94° |
| 2026-04-27 15:15 | 42.69609 | 23.42464 | 1845 ft | 170 kts | 91° |
| 2026-04-27 15:15 | 42.69510 | 23.44030 | 2647 ft | 165 kts | 94° |
| 2026-04-27 15:15 | 42.69396 | 23.45592 | 3350 ft | 166 kts | 93° |
| 2026-04-27 15:16 | 42.69060 | 23.47151 | 3850 ft | 185 kts | 123° |
| 2026-04-27 15:16 | 42.67978 | 23.48252 | 4160 ft | 209 kts | 155° |
| 2026-04-27 15:16 | 42.66560 | 23.49078 | 4470 ft | 234 kts | 157° |
| 2026-04-27 15:16 | 42.64976 | 23.49974 | 4890 ft | 258 kts | 157° |
| 2026-04-27 15:17 | 42.63289 | 23.50920 | 5523 ft | 271 kts | 158° |
| 2026-04-27 15:17 | 42.61529 | 23.51909 | 6400 ft | 277 kts | 160° |
| 2026-04-27 15:17 | 42.59735 | 23.52923 | 7240 ft | 282 kts | 160° |
| 2026-04-27 15:17 | 42.57907 | 23.53962 | 8035 ft | 288 kts | 159° |
| 2026-04-27 15:18 | 42.56040 | 23.55027 | 8850 ft | 294 kts | 159° |
| 2026-04-27 15:18 | 42.54135 | 23.56117 | 9659 ft | 300 kts | 160° |
| 2026-04-27 15:18 | 42.52186 | 23.57233 | 10284 ft | 313 kts | 159° |
| 2026-04-27 15:18 | 42.50105 | 23.58421 | 10556 ft | 336 kts | 159° |
| 2026-04-27 15:19 | 42.47874 | 23.59693 | 10816 ft | 357 kts | 159° |
| 2026-04-27 15:19 | 42.45551 | 23.61019 | 11393 ft | 366 kts | 159° |
| 2026-04-27 15:19 | 42.43196 | 23.62365 | 12091 ft | 370 kts | 159° |
| 2026-04-27 15:19 | 42.40807 | 23.63732 | 12810 ft | 375 kts | 158° |
| 2026-04-27 15:20 | 42.38393 | 23.65113 | 13543 ft | 379 kts | 158° |
| 2026-04-27 15:20 | 42.35953 | 23.66507 | 14226 ft | 382 kts | 158° |
| 2026-04-27 15:20 | 42.33494 | 23.67912 | 14883 ft | 385 kts | 158° |
| 2026-04-27 15:20 | 42.31016 | 23.69322 | 15548 ft | 387 kts | 158° |
| 2026-04-27 15:21 | 42.28523 | 23.70736 | 16214 ft | 390 kts | 159° |
| 2026-04-27 15:21 | 42.26015 | 23.72158 | 16864 ft | 392 kts | 159° |
| 2026-04-27 15:21 | 42.23490 | 23.73588 | 17502 ft | 395 kts | 159° |
| 2026-04-27 15:21 | 42.20948 | 23.75028 | 18144 ft | 397 kts | 159° |
| 2026-04-27 15:22 | 42.18393 | 23.76473 | 18680 ft | 400 kts | 159° |
| 2026-04-27 15:22 | 42.15815 | 23.77930 | 19175 ft | 403 kts | 159° |
| 2026-04-27 15:22 | 42.13220 | 23.79396 | 19679 ft | 406 kts | 159° |
| 2026-04-27 15:22 | 42.10604 | 23.80876 | 20188 ft | 409 kts | 159° |
| 2026-04-27 15:23 | 42.07970 | 23.82367 | 20677 ft | 412 kts | 159° |
| 2026-04-27 15:23 | 42.05316 | 23.83868 | 21121 ft | 416 kts | 159° |
| 2026-04-27 15:23 | 42.02641 | 23.85375 | 21564 ft | 419 kts | 159° |
| 2026-04-27 15:23 | 41.99933 | 23.86891 | 22018 ft | 423 kts | 159° |
| 2026-04-27 15:24 | 41.97207 | 23.88418 | 22462 ft | 426 kts | 158° |
| 2026-04-27 15:24 | 41.94459 | 23.89961 | 22905 ft | 430 kts | 158° |
| 2026-04-27 15:24 | 41.91695 | 23.91514 | 23350 ft | 433 kts | 158° |
| 2026-04-27 15:24 | 41.88941 | 23.93056 | 23760 ft | 436 kts | 158° |
| 2026-04-27 15:25 | 41.86136 | 23.94625 | 24129 ft | 438 kts | 158° |
| 2026-04-27 15:25 | 41.83311 | 23.96203 | 24470 ft | 442 kts | 158° |
| 2026-04-27 15:25 | 41.80464 | 23.97793 | 24807 ft | 445 kts | 158° |
| 2026-04-27 15:25 | 41.77599 | 23.99392 | 25164 ft | 447 kts | 158° |
| 2026-04-27 15:26 | 41.74721 | 24.01000 | 25536 ft | 449 kts | 158° |
| 2026-04-27 15:26 | 41.71830 | 24.02612 | 25898 ft | 451 kts | 158° |
| 2026-04-27 15:26 | 41.68927 | 24.04232 | 26251 ft | 453 kts | 158° |
| 2026-04-27 15:26 | 41.66008 | 24.05858 | 26608 ft | 455 kts | 158° |
| 2026-04-27 15:27 | 41.63077 | 24.07485 | 26962 ft | 457 kts | 158° |
| 2026-04-27 15:27 | 41.60138 | 24.09110 | 27337 ft | 458 kts | 159° |
| 2026-04-27 15:27 | 41.57189 | 24.10739 | 27674 ft | 460 kts | 159° |
| 2026-04-27 15:27 | 41.54289 | 24.12563 | 27977 ft | 463 kts | 151° |
| 2026-04-27 15:28 | 41.51568 | 24.14891 | 28278 ft | 466 kts | 147° |
| 2026-04-27 15:28 | 41.48874 | 24.17314 | 28570 ft | 468 kts | 147° |
| 2026-04-27 15:28 | 41.46167 | 24.19744 | 28855 ft | 470 kts | 147° |
| 2026-04-27 15:28 | 41.43443 | 24.22180 | 29139 ft | 473 kts | 147° |
| 2026-04-27 15:29 | 41.40703 | 24.24622 | 29414 ft | 475 kts | 147° |
| 2026-04-27 15:29 | 41.37949 | 24.27074 | 29727 ft | 476 kts | 147° |
| 2026-04-27 15:29 | 41.35197 | 24.29527 | 30128 ft | 476 kts | 148° |
| 2026-04-27 15:29 | 41.32446 | 24.31976 | 30471 ft | 475 kts | 148° |
| 2026-04-27 15:30 | 41.29699 | 24.34417 | 30806 ft | 475 kts | 148° |
| 2026-04-27 15:30 | 41.26950 | 24.36853 | 31151 ft | 474 kts | 148° |
| 2026-04-27 15:30 | 41.24207 | 24.39279 | 31502 ft | 473 kts | 148° |
| 2026-04-27 15:30 | 41.21466 | 24.41698 | 31848 ft | 473 kts | 148° |
| 2026-04-27 15:31 | 41.18666 | 24.43957 | 32188 ft | 470 kts | 155° |
| 2026-04-27 15:31 | 41.15733 | 24.45854 | 32538 ft | 468 kts | 156° |
| 2026-04-27 15:31 | 41.12799 | 24.47731 | 32866 ft | 468 kts | 157° |
| 2026-04-27 15:31 | 41.09872 | 24.49602 | 33201 ft | 467 kts | 157° |
| 2026-04-27 15:32 | 41.06941 | 24.51476 | 33543 ft | 467 kts | 157° |
| 2026-04-27 15:32 | 41.04020 | 24.53342 | 33879 ft | 466 kts | 157° |
| 2026-04-27 15:32 | 41.01099 | 24.55207 | 34223 ft | 466 kts | 157° |
| 2026-04-27 15:32 | 40.98183 | 24.57068 | 34507 ft | 465 kts | 157° |
| 2026-04-27 15:33 | 40.95265 | 24.58928 | 34794 ft | 465 kts | 157° |
| 2026-04-27 15:33 | 40.92355 | 24.60783 | 35064 ft | 464 kts | 157° |
| 2026-04-27 15:33 | 40.89442 | 24.62635 | 35297 ft | 465 kts | 157° |
| 2026-04-27 15:33 | 40.86528 | 24.64486 | 35540 ft | 465 kts | 157° |
| 2026-04-27 15:34 | 40.83403 | 24.66471 | 35807 ft | 465 kts | 158° |
| 2026-04-27 15:34 | 40.80490 | 24.68319 | 36042 ft | 464 kts | 158° |
| 2026-04-27 15:34 | 40.77578 | 24.70166 | 36286 ft | 464 kts | 158° |
| 2026-04-27 15:35 | 40.74668 | 24.72010 | 36529 ft | 464 kts | 158° |
| 2026-04-27 15:35 | 40.71757 | 24.73856 | 36752 ft | 464 kts | 158° |
| 2026-04-27 15:35 | 40.68848 | 24.75703 | 36982 ft | 464 kts | 158° |
| 2026-04-27 15:35 | 40.65941 | 24.77545 | 37137 ft | 464 kts | 158° |
| 2026-04-27 15:36 | 40.60101 | 24.81230 | 37170 ft | 466 kts | 158° |
| 2026-04-27 15:36 | 40.54256 | 24.84918 | 37169 ft | 466 kts | 158° |
| 2026-04-27 15:37 | 40.48410 | 24.88602 | 37168 ft | 466 kts | 158° |
| 2026-04-27 15:37 | 40.42562 | 24.92265 | 37162 ft | 466 kts | 158° |
| 2026-04-27 15:38 | 40.36743 | 24.95895 | 37169 ft | 466 kts | 158° |
| 2026-04-27 15:38 | 40.30887 | 24.99552 | 37163 ft | 466 kts | 158° |
| 2026-04-27 15:39 | 40.25035 | 25.03205 | 37157 ft | 466 kts | 158° |
| 2026-04-27 15:39 | 40.19185 | 25.06858 | 37142 ft | 466 kts | 158° |
| 2026-04-27 15:40 | 40.13336 | 25.10490 | 37148 ft | 466 kts | 158° |
| 2026-04-27 15:40 | 40.08431 | 25.13531 | 37150 ft | 466 kts | 158° |
| 2026-04-27 15:41 | 40.02616 | 25.17134 | 37137 ft | 466 kts | 158° |
| 2026-04-27 15:41 | 39.96762 | 25.20750 | 37138 ft | 465 kts | 158° |
| 2026-04-27 15:42 | 39.91087 | 25.24820 | 37137 ft | 469 kts | 146° |
| 2026-04-27 15:42 | 39.86112 | 25.30366 | 37134 ft | 471 kts | 141° |
| 2026-04-27 15:43 | 39.81178 | 25.35979 | 37128 ft | 471 kts | 141° |
| 2026-04-27 15:43 | 39.76235 | 25.41578 | 37129 ft | 471 kts | 141° |
| 2026-04-27 15:44 | 39.71288 | 25.47167 | 37133 ft | 471 kts | 141° |
| 2026-04-27 15:44 | 39.66344 | 25.52751 | 37119 ft | 471 kts | 141° |
| 2026-04-27 15:45 | 39.61404 | 25.58330 | 37118 ft | 471 kts | 141° |
| 2026-04-27 15:45 | 39.56455 | 25.63900 | 37119 ft | 471 kts | 141° |
| 2026-04-27 15:46 | 39.51505 | 25.69461 | 37112 ft | 471 kts | 141° |
| 2026-04-27 15:46 | 39.46549 | 25.75001 | 37110 ft | 471 kts | 141° |
| 2026-04-27 15:47 | 39.41589 | 25.80534 | 37096 ft | 471 kts | 141° |
| 2026-04-27 15:47 | 39.36635 | 25.86065 | 37096 ft | 471 kts | 141° |
| 2026-04-27 15:48 | 39.31713 | 25.91555 | 37090 ft | 470 kts | 141° |
| 2026-04-27 15:49 | 39.24238 | 25.99759 | 37086 ft | 470 kts | 142° |
| 2026-04-27 15:49 | 39.19199 | 26.05129 | 37082 ft | 470 kts | 142° |
| 2026-04-27 15:50 | 39.14161 | 26.10495 | 37067 ft | 470 kts | 142° |
| 2026-04-27 15:50 | 39.09133 | 26.15874 | 37069 ft | 470 kts | 142° |
| 2026-04-27 15:51 | 39.04111 | 26.21252 | 37067 ft | 470 kts | 142° |
| 2026-04-27 15:51 | 38.99076 | 26.26615 | 37062 ft | 470 kts | 142° |
| 2026-04-27 15:52 | 38.94039 | 26.31963 | 37068 ft | 470 kts | 142° |
| 2026-04-27 15:52 | 38.89008 | 26.37312 | 37070 ft | 470 kts | 142° |
| 2026-04-27 15:53 | 38.83976 | 26.42654 | 37063 ft | 470 kts | 142° |
| 2026-04-27 15:53 | 38.78988 | 26.48071 | 37061 ft | 470 kts | 141° |
| 2026-04-27 15:54 | 38.74086 | 26.53620 | 37058 ft | 470 kts | 140° |
| 2026-04-27 15:54 | 38.69195 | 26.59177 | 37053 ft | 470 kts | 140° |
| 2026-04-27 15:55 | 38.64282 | 26.64690 | 37052 ft | 470 kts | 141° |
| 2026-04-27 15:55 | 38.59349 | 26.70163 | 37055 ft | 470 kts | 140° |
| 2026-04-27 15:55 | 38.57101 | 26.73196 | 37041 ft | 471 kts | 129° |
| 2026-04-27 15:56 | 38.55070 | 26.76489 | 37034 ft | 471 kts | 129° |
| 2026-04-27 15:56 | 38.51024 | 26.83072 | 37038 ft | 471 kts | 129° |
| 2026-04-27 15:57 | 38.46978 | 26.89664 | 37032 ft | 472 kts | 129° |
| 2026-04-27 15:57 | 38.42926 | 26.96245 | 37024 ft | 472 kts | 129° |
| 2026-04-27 15:58 | 38.38861 | 27.02812 | 37024 ft | 472 kts | 129° |
| 2026-04-27 15:58 | 38.34796 | 27.09375 | 37022 ft | 472 kts | 129° |
| 2026-04-27 15:59 | 38.30731 | 27.15930 | 37025 ft | 472 kts | 129° |
| 2026-04-27 15:59 | 38.26655 | 27.22475 | 37017 ft | 472 kts | 129° |
| 2026-04-27 16:00 | 38.22576 | 27.29014 | 37003 ft | 472 kts | 129° |
| 2026-04-27 16:00 | 38.18505 | 27.35556 | 37008 ft | 472 kts | 129° |
| 2026-04-27 16:01 | 38.14423 | 27.42086 | 37001 ft | 472 kts | 129° |
| 2026-04-27 16:01 | 38.10329 | 27.48594 | 37008 ft | 472 kts | 129° |
| 2026-04-27 16:02 | 38.06265 | 27.55065 | 37009 ft | 472 kts | 129° |
| 2026-04-27 16:02 | 38.02176 | 27.61566 | 37002 ft | 471 kts | 129° |
| 2026-04-27 16:03 | 37.98084 | 27.68060 | 37000 ft | 471 kts | 129° |
| 2026-04-27 16:03 | 37.93990 | 27.74544 | 36957 ft | 471 kts | 129° |
| 2026-04-27 16:04 | 37.89891 | 27.81019 | 36741 ft | 469 kts | 129° |
| 2026-04-27 16:04 | 37.87851 | 27.84235 | 36044 ft | 469 kts | 129° |
| 2026-04-27 16:04 | 37.85809 | 27.87449 | 35388 ft | 468 kts | 129° |
| 2026-04-27 16:04 | 37.83766 | 27.90664 | 34752 ft | 469 kts | 129° |
| 2026-04-27 16:05 | 37.81721 | 27.93881 | 34134 ft | 469 kts | 129° |
| 2026-04-27 16:05 | 37.79673 | 27.97092 | 33455 ft | 469 kts | 129° |
| 2026-04-27 16:05 | 37.77622 | 28.00307 | 32756 ft | 470 kts | 129° |
| 2026-04-27 16:05 | 37.75567 | 28.03530 | 32083 ft | 472 kts | 129° |
| 2026-04-27 16:06 | 37.73505 | 28.06763 | 31430 ft | 473 kts | 129° |
| 2026-04-27 16:06 | 37.71439 | 28.10006 | 30786 ft | 475 kts | 129° |
| 2026-04-27 16:06 | 37.69365 | 28.13257 | 30184 ft | 477 kts | 129° |
| 2026-04-27 16:06 | 37.67285 | 28.16508 | 29475 ft | 473 kts | 129° |
| 2026-04-27 16:07 | 37.65223 | 28.19722 | 28735 ft | 469 kts | 129° |
| 2026-04-27 16:07 | 37.63179 | 28.22899 | 28042 ft | 465 kts | 129° |
| 2026-04-27 16:07 | 37.61150 | 28.26053 | 27345 ft | 460 kts | 129° |
| 2026-04-27 16:07 | 37.59143 | 28.29173 | 26687 ft | 457 kts | 129° |
| 2026-04-27 16:08 | 37.57152 | 28.32270 | 26034 ft | 453 kts | 129° |
| 2026-04-27 16:08 | 37.55174 | 28.35349 | 25396 ft | 449 kts | 128° |
| 2026-04-27 16:08 | 37.53216 | 28.38396 | 24773 ft | 446 kts | 128° |
| 2026-04-27 16:08 | 37.51267 | 28.41419 | 24156 ft | 442 kts | 128° |
| 2026-04-27 16:09 | 37.49333 | 28.44413 | 23558 ft | 439 kts | 128° |
| 2026-04-27 16:09 | 37.45498 | 28.50333 | 22156 ft | 434 kts | 129° |
| 2026-04-27 16:09 | 37.43598 | 28.53261 | 21485 ft | 431 kts | 129° |
| 2026-04-27 16:10 | 37.39831 | 28.59067 | 20169 ft | 426 kts | 128° |
| 2026-04-27 16:10 | 37.36114 | 28.64803 | 18915 ft | 421 kts | 128° |
| 2026-04-27 16:11 | 37.34267 | 28.67650 | 18316 ft | 418 kts | 129° |
| 2026-04-27 16:11 | 37.30603 | 28.73275 | 16941 ft | 414 kts | 129° |
| 2026-04-27 16:12 | 37.27012 | 28.78767 | 15646 ft | 410 kts | 129° |
| 2026-04-27 16:12 | 37.25190 | 28.81556 | 15000 ft | 407 kts | 129° |
| 2026-04-27 16:12 | 37.21613 | 28.87023 | 13752 ft | 403 kts | 129° |
| 2026-04-27 16:13 | 37.19836 | 28.89730 | 13073 ft | 401 kts | 129° |
| 2026-04-27 16:13 | 37.16301 | 28.95090 | 11746 ft | 396 kts | 132° |
| 2026-04-27 16:13 | 37.14306 | 28.97440 | 11098 ft | 392 kts | 137° |
| 2026-04-27 16:14 | 37.10284 | 29.01948 | 9883 ft | 383 kts | 137° |
| 2026-04-27 16:14 | 37.05746 | 29.04984 | 8700 ft | 372 kts | 176° |
| 2026-04-27 16:15 | 37.00977 | 29.03194 | 7533 ft | 357 kts | 210° |
| 2026-04-27 16:15 | 36.96888 | 29.00018 | 6105 ft | 329 kts | 214° |
| 2026-04-27 16:16 | 36.93343 | 28.96942 | 5108 ft | 294 kts | 224° |
| 2026-04-27 16:16 | 36.90409 | 28.93688 | 4169 ft | 270 kts | 220° |
| 2026-04-27 16:17 | 36.87670 | 28.90803 | 3533 ft | 239 kts | 220° |
| 2026-04-27 16:17 | 36.85281 | 28.88432 | 3351 ft | 204 kts | 210° |
| 2026-04-27 16:18 | 36.82846 | 28.86657 | 2674 ft | 197 kts | 210° |
| 2026-04-27 16:18 | 36.80616 | 28.85034 | 2078 ft | 174 kts | 209° |
| 2026-04-27 16:19 | 36.79600 | 28.84298 | 1848 ft | 161 kts | 210° |
| 2026-04-27 16:19 | 36.78673 | 28.83627 | 1598 ft | 147 kts | 210° |
| 2026-04-27 16:20 | 36.76123 | 28.81769 | 947 ft | 139 kts | 211° |
| 2026-04-27 16:20 | 36.75311 | 28.81168 | 721 ft | 137 kts | 210° |
| 2026-04-27 16:20 | 36.73645 | 28.80061 | 264 ft | 134 kts | 198° |
| 2026-04-27 16:21 | 36.72742 | 28.79742 | 110 ft | 135 kts | 196° |
| 2026-04-27 16:21 | 36.70829 | 28.79083 | 28 ft | 40 kts | 196° |
| 2026-04-27 16:22 | 36.70652 | 28.78970 | 29 ft | 19 kts | 215° |
| 2026-04-27 16:22 | 36.70622 | 28.78803 | 28 ft | 19 kts | 6° |
| 2026-04-27 16:22 | 36.70755 | 28.78847 | 28 ft | 20 kts | 15° |
| 2026-04-27 16:23 | 36.70899 | 28.78895 | 28 ft | 24 kts | 14° |
| 2026-04-27 16:23 | 36.71211 | 28.79002 | 27 ft | 23 kts | 14° |
| 2026-04-27 16:23 | 36.71315 | 28.79025 | 27 ft | 11 kts | 335° |
| 2026-04-27 16:24 | 36.71349 | 28.78897 | 27 ft | 19 kts | 285° |
| 2026-04-27 16:24 | 36.71581 | 28.78911 | 27 ft | 20 kts | 15° |
| 2026-04-27 16:25 | 36.71877 | 28.79012 | 27 ft | 20 kts | 16° |
| 2026-04-27 16:25 | 36.72062 | 28.79076 | 27 ft | 15 kts | 15° |
| 2026-04-27 16:26 | 36.72123 | 28.79020 | 27 ft | 1 kts | 286° |
| 2026-04-27 16:26 | 36.72124 | 28.79014 | 27 ft | 0 kts | 285° |